CLMO2: North Canadian River

Data processed at Mon Apr 23 2018 21:24


All information presented herein is the property of the government of the United States of America and may be revised or deleted at any time without prior notice.
Dissemination of this information without the expressed written consent of the Public Affairs Office, Tulsa District U.S. Army Corps of Engineers is strictly prohibited.
These data are gathered electronically and, as presented, have not undergone any form of quality control. These data are not guaranteed to be valid or correct.
Go to home page.
Go to station list.

Upstream stations:

Downstream station:
Previous Day
Next Day
Current Day
    
SHEF ID:       CLMO2     North Canadian River near Calume
STATION TYPE:  

                STAGE  STAGE(2)  RIV-FLOW  WTR-TEMP   DIS-OXY        PH   CONDUCT  BAT-LOAD
                   ft        ft       cfs         F      mg/l        su   umho/cm      volt
              Ccp-Rev   Ccp-Rev   Ccp-Rev   Ccp-Rev   Ccp-Rev   Ccp-Rev   Ccp-Rev   Ccp-Rev
(US/Central)
04/23 00:00      3.21      3.61        12     59.94      8.13      8.40      1352     12.65
04/23 01:00      3.20      3.60        11     59.22      7.98      8.40      1355     12.65
04/23 02:00      3.20      3.61        11     58.50      7.91      8.30      1393     12.65
04/23 03:00      3.14      3.61         9     57.78      7.88      8.30      1400     12.65
04/23 04:00      3.12      3.62         9     56.97      7.87      8.30      1398     12.65
04/23 05:00      3.19      3.62        11     56.30      7.91      8.30      1401     12.57
04/23 06:00      3.23      3.64        12     55.72      7.95      8.30      1405     12.57
04/23 07:00      3.23      3.65        12     55.15      8.02      8.20      1412     12.57
04/23 08:00      3.59      3.64        26     54.84      8.31      8.20      1418     12.65
04/23 09:00      3.84      3.64        40     55.27      8.95      8.30      1428     12.81
04/23 10:00      3.83      3.65        39     56.57      9.69      8.30      1432     13.37
04/23 11:00      3.85      3.67        40     59.23     10.43      8.30      1437     13.29
04/23 12:00      3.69      3.73        31     62.20     11.00      8.40      1435     13.37
04/23 13:00      3.77      3.73        36     65.34     11.47      8.40      1429     13.44
04/23 14:00      3.83      3.69        39     68.31     11.82      8.40      1420     13.37
04/23 15:00      3.87      3.69        41     71.08     12.05      8.40      1404     13.37
04/23 16:00      3.87      3.67        41     72.88     12.11      8.50      1374     13.37
04/23 17:00      3.79      3.70        37     73.29     11.86      8.50      1363     13.37
04/23 18:00      3.74      3.68        34     73.08     11.39      8.50      1341     13.21
04/23 19:00      3.72      3.73        33     72.30     10.81      8.50      1334     13.05
04/23 20:00      3.59      3.70        26     71.35      9.79      8.50      1320     12.97
04/23 21:00      ----      ----      ----      ----      ----      ----      ----      ----
04/23 22:00      ----      ----      ----      ----      ----      ----      ----      ----
04/23 23:00      ----      ----      ----      ----      ----      ----      ----      ----